Warning: Javascript must be enabled to use all the features on this page!


Page Loading - Please Wait...

Click to hideNews Bulletins

Peak Streamflow for the Nation

USGS 05527800 DES PLAINES RIVER AT RUSSELL, IL

Lake County, Illinois
Hydrologic Unit Code 07120004
Latitude  42°29'21.79", Longitude  87°55'33.3" NAD83
Drainage area 123  square miles
Contributing drainage area 123.0  square miles
Gage datum 661.87 feet above NAVD88
Output formats
Table
Graph
Tab-separated file
peakfq (watstore) format
Reselect output format
Water
Year
Date Gage
Height
(feet)
Stream-
flow
(cfs)
1960 1960-04-02 9.69 1,320
1961 1961-03-19   4252
1962 1962-03-22 8.21 820
1963 1963-04-30 3.99 104
1964 1964-04-05 4.95 157
1965 1965-04-06 7.53 600
1966 1966-02-10 8.41 740
1967 1967-06-10 8.35 720
1968 1968-07-01 6.01 235
1969 1969-04-20 6.692 273
1970 1970-06-05 7.802 508
1971 1971-02-23 8.61 898
1972 1972-04-19 8.102 816
1973 1973-04-23 7.74 940
1974 1974-03-05 9.30 1,690
1975 1975-03-24 6.43 407
1976 1976-03-06 10.75 1,990
1977 1977-03-31 3.76 105
1978 1978-08-21 10.31 1,380
1979 1979-03-21 9.69 2,120
1980 1980-09-20 7.16 484
1981 1981-02-27 6.49 378
1982 1982-03-18 8.30 873
1983 1983-04-04 9.89 1,630
1984 1984-02-20 7.43 597
1985 1985-03-05 8.69 950
1986 1986-09-27 10.75 1,640
1987 1987-04-17 8.32 435
1988 1988-04-08 7.572 442
1989 1989-09-07 5.42 155
1990 1990-03-15 8.96 852
1991 1991-03-30 8.24 587
1992 1991-12-05 6.90 428
1993 1993-04-21 8.89 1,750
1994 1994-02-23 9.951 8702
1995 1995-04-30 7.68 805
1996 1996-05-23 8.31 1,200
1997 1997-02-24 7.77 853
1998 1998-04-18 7.66 794
1999 1999-04-25 8.38 1,250
2000 2000-06-14 9.95 2,130
2001 2001-06-17 7.00 501
2002 2002-04-13 6.87 527
2003 2003-05-11 5.34 241
2004 2004-05-23 11.09 3,500
2005 2005-02-17 7.41 672
2006 2006-03-16 7.02 509
2007 2007-08-24 10.57 1,610
2008 2008-06-11 9.47 1,910
2009 2009-06-21 10.01 2,470
2010 2010-03-14 8.27 1,180
2011 2011-02-23 7.59 761
2012 2012-03-26 5.69 306
2013 2013-04-19 9.99 2,300
2014 2014-05-17 7.71 507
2015 2015-04-12 7.18 493
2016 2015-12-02 7.86 648
2017 2017-07-14 12.11 2,830
2018 2018-06-27 8.07 871
2019 2019-09-15 10.48 1,780
2020 2020-05-01 9.03 1,650
2021 2021-03-12 7.11 738
?
  Peak Gage-Height Qualification Codes.
?
  Peak Streamflow Qualification Codes.